IBE3TA LECO-LPPR
Flight info
| Callsign | IBE3TA |
|---|---|
| Flight time | 0h 36m |
| Altitude | 24000 |
| Route | FORNO N733 INSID/N0420F230 T326 ASPOR |
| Aircraft | CRJ9/M-SDFGIRWY/S |
Departure
| Time | 2026-05-03 22:10 |
|---|---|
| Airport | A Coruña Airport (LECO) |
Arrival
| Time | 2026-05-03 22:46 |
|---|---|
| Airport | Francisco de Sá Carneiro Airport (LPPR) |
| Time | Latitude | Longitude | Altitude | Speed | Heading |
|---|---|---|---|---|---|
| 2026-05-03 21:40 | 43.30097 | -8.38179 | 339 ft | 0 kts | 31° |
| 2026-05-03 21:55 | 43.30098 | -8.38179 | 339 ft | 0 kts | 31° |
| 2026-05-03 22:01 | 43.30105 | -8.38175 | 339 ft | 1 kts | 4° |
| 2026-05-03 22:01 | 43.30107 | -8.38176 | 335 ft | 1 kts | 342° |
| 2026-05-03 22:02 | 43.30112 | -8.38191 | 337 ft | 3 kts | 266° |
| 2026-05-03 22:02 | 43.30110 | -8.38198 | 337 ft | 2 kts | 231° |
| 2026-05-03 22:02 | 43.30094 | -8.38223 | 339 ft | 0 kts | 212° |
| 2026-05-03 22:02 | 43.30088 | -8.38225 | 336 ft | 4 kts | 185° |
| 2026-05-03 22:03 | 43.30059 | -8.38198 | 336 ft | 9 kts | 123° |
| 2026-05-03 22:03 | 43.30045 | -8.38167 | 339 ft | 5 kts | 121° |
| 2026-05-03 22:03 | 43.30027 | -8.38124 | 339 ft | 6 kts | 121° |
| 2026-05-03 22:03 | 43.30005 | -8.38079 | 336 ft | 6 kts | 138° |
| 2026-05-03 22:04 | 43.29971 | -8.38048 | 338 ft | 6 kts | 137° |
| 2026-05-03 22:04 | 43.29951 | -8.38011 | 339 ft | 4 kts | 121° |
| 2026-05-03 22:04 | 43.29946 | -8.37994 | 339 ft | 1 kts | 108° |
| 2026-05-03 22:04 | 43.29946 | -8.37944 | 340 ft | 11 kts | 59° |
| 2026-05-03 22:05 | 43.30049 | -8.37850 | 340 ft | 25 kts | 31° |
| 2026-05-03 22:05 | 43.30241 | -8.37696 | 335 ft | 39 kts | 30° |
| 2026-05-03 22:05 | 43.30508 | -8.37478 | 339 ft | 50 kts | 32° |
| 2026-05-03 22:05 | 43.30778 | -8.37257 | 337 ft | 39 kts | 30° |
| 2026-05-03 22:06 | 43.30946 | -8.37186 | 340 ft | 12 kts | 8° |
| 2026-05-03 22:06 | 43.30978 | -8.37134 | 339 ft | 4 kts | 120° |
| 2026-05-03 22:06 | 43.30959 | -8.37118 | 338 ft | 3 kts | 171° |
| 2026-05-03 22:06 | 43.30943 | -8.37123 | 338 ft | 3 kts | 210° |
| 2026-05-03 22:07 | 43.30922 | -8.37141 | 339 ft | 3 kts | 211° |
| 2026-05-03 22:07 | 43.30905 | -8.37155 | 339 ft | 3 kts | 211° |
| 2026-05-03 22:07 | 43.30890 | -8.37167 | 341 ft | 2 kts | 211° |
| 2026-05-03 22:07 | 43.30877 | -8.37178 | 340 ft | 2 kts | 211° |
| 2026-05-03 22:08 | 43.30869 | -8.37185 | 352 ft | 0 kts | 211° |
| 2026-05-03 22:09 | 43.30818 | -8.37226 | 345 ft | 0 kts | 211° |
| 2026-05-03 22:09 | 43.30673 | -8.37344 | 341 ft | 63 kts | 211° |
| 2026-05-03 22:10 | 43.29076 | -8.38640 | 620 ft | 174 kts | 211° |
| 2026-05-03 22:10 | 43.28039 | -8.39436 | 1652 ft | 167 kts | 200° |
| 2026-05-03 22:10 | 43.26894 | -8.39401 | 2437 ft | 180 kts | 160° |
| 2026-05-03 22:10 | 43.25723 | -8.38214 | 2018 ft | 252 kts | 133° |
| 2026-05-03 22:11 | 43.24339 | -8.36530 | 2550 ft | 268 kts | 139° |
| 2026-05-03 22:11 | 43.22913 | -8.34937 | 3123 ft | 257 kts | 139° |
| 2026-05-03 22:11 | 43.21507 | -8.33330 | 3447 ft | 272 kts | 140° |
| 2026-05-03 22:11 | 43.20005 | -8.31602 | 4434 ft | 279 kts | 140° |
| 2026-05-03 22:12 | 43.18522 | -8.29884 | 5782 ft | 281 kts | 141° |
| 2026-05-03 22:12 | 43.16801 | -8.28658 | 6900 ft | 281 kts | 168° |
| 2026-05-03 22:12 | 43.14863 | -8.28190 | 7991 ft | 285 kts | 173° |
| 2026-05-03 22:12 | 43.12885 | -8.27836 | 9060 ft | 289 kts | 175° |
| 2026-05-03 22:13 | 43.10873 | -8.27553 | 10100 ft | 293 kts | 176° |
| 2026-05-03 22:13 | 43.08836 | -8.27314 | 11074 ft | 296 kts | 178° |
| 2026-05-03 22:13 | 43.06772 | -8.27105 | 12040 ft | 299 kts | 178° |
| 2026-05-03 22:13 | 43.04687 | -8.26886 | 12991 ft | 302 kts | 178° |
| 2026-05-03 22:14 | 43.02581 | -8.26622 | 13926 ft | 306 kts | 176° |
| 2026-05-03 22:14 | 43.00445 | -8.26313 | 14627 ft | 316 kts | 176° |
| 2026-05-03 22:14 | 42.98249 | -8.25975 | 15477 ft | 315 kts | 176° |
| 2026-05-03 22:14 | 42.96032 | -8.25627 | 15993 ft | 330 kts | 176° |
| 2026-05-03 22:15 | 42.93687 | -8.25270 | 16356 ft | 348 kts | 176° |
| 2026-05-03 22:15 | 42.91232 | -8.24894 | 16911 ft | 357 kts | 176° |
| 2026-05-03 22:15 | 42.88753 | -8.24504 | 17677 ft | 361 kts | 176° |
| 2026-05-03 22:15 | 42.86281 | -8.24115 | 18407 ft | 364 kts | 176° |
| 2026-05-03 22:16 | 42.83751 | -8.23719 | 19055 ft | 367 kts | 176° |
| 2026-05-03 22:16 | 42.81197 | -8.23325 | 19663 ft | 371 kts | 176° |
| 2026-05-03 22:16 | 42.78622 | -8.22929 | 20284 ft | 374 kts | 176° |
| 2026-05-03 22:16 | 42.76014 | -8.22527 | 20883 ft | 377 kts | 176° |
| 2026-05-03 22:17 | 42.73416 | -8.22128 | 21454 ft | 381 kts | 176° |
| 2026-05-03 22:17 | 42.70769 | -8.21722 | 21988 ft | 384 kts | 177° |
| 2026-05-03 22:17 | 42.68099 | -8.21312 | 22524 ft | 388 kts | 177° |
| 2026-05-03 22:17 | 42.65385 | -8.20897 | 22826 ft | 397 kts | 177° |
| 2026-05-03 22:18 | 42.62597 | -8.20471 | 22956 ft | 410 kts | 176° |
| 2026-05-03 22:18 | 42.59717 | -8.20033 | 23016 ft | 423 kts | 176° |
| 2026-05-03 22:18 | 42.56732 | -8.19570 | 23035 ft | 436 kts | 176° |
| 2026-05-03 22:18 | 42.53679 | -8.19103 | 23047 ft | 448 kts | 176° |
| 2026-05-03 22:19 | 42.50548 | -8.18627 | 23055 ft | 459 kts | 176° |
| 2026-05-03 22:19 | 42.47330 | -8.18136 | 23055 ft | 469 kts | 176° |
| 2026-05-03 22:19 | 42.44053 | -8.17634 | 23067 ft | 478 kts | 176° |
| 2026-05-03 22:19 | 42.40722 | -8.17128 | 23065 ft | 486 kts | 176° |
| 2026-05-03 22:20 | 42.37344 | -8.16560 | 23048 ft | 489 kts | 175° |
| 2026-05-03 22:20 | 42.34045 | -8.16003 | 23057 ft | 478 kts | 176° |
| 2026-05-03 22:20 | 42.30809 | -8.15506 | 23038 ft | 458 kts | 176° |
| 2026-05-03 22:20 | 42.27698 | -8.15032 | 23008 ft | 442 kts | 176° |
| 2026-05-03 22:21 | 42.24661 | -8.14570 | 23015 ft | 440 kts | 176° |
| 2026-05-03 22:21 | 42.21608 | -8.14113 | 23011 ft | 434 kts | 177° |
| 2026-05-03 22:21 | 42.18681 | -8.14267 | 22987 ft | 420 kts | 194° |
| 2026-05-03 22:21 | 42.15987 | -8.15615 | 22973 ft | 407 kts | 208° |
| 2026-05-03 22:22 | 42.13386 | -8.17048 | 23083 ft | 400 kts | 200° |
| 2026-05-03 22:22 | 42.10726 | -8.18139 | 22887 ft | 397 kts | 202° |
| 2026-05-03 22:22 | 42.08275 | -8.19783 | 22648 ft | 393 kts | 209° |
| 2026-05-03 22:22 | 42.05656 | -8.20843 | 22423 ft | 399 kts | 186° |
| 2026-05-03 22:23 | 42.02899 | -8.20312 | 22222 ft | 408 kts | 162° |
| 2026-05-03 22:23 | 42.00463 | -8.18320 | 22041 ft | 415 kts | 143° |
| 2026-05-03 22:23 | 41.98244 | -8.15835 | 21857 ft | 413 kts | 146° |
| 2026-05-03 22:23 | 41.95870 | -8.13693 | 21701 ft | 409 kts | 155° |
| 2026-05-03 22:24 | 41.93289 | -8.12158 | 21556 ft | 404 kts | 164° |
| 2026-05-03 22:24 | 41.90638 | -8.11114 | 21406 ft | 401 kts | 169° |
| 2026-05-03 22:24 | 41.87939 | -8.10221 | 21294 ft | 399 kts | 170° |
| 2026-05-03 22:24 | 41.85243 | -8.09335 | 21153 ft | 398 kts | 169° |
| 2026-05-03 22:25 | 41.82530 | -8.08849 | 20978 ft | 391 kts | 187° |
| 2026-05-03 22:25 | 41.79914 | -8.09629 | 21009 ft | 382 kts | 200° |
| 2026-05-03 22:25 | 41.77462 | -8.10931 | 21013 ft | 376 kts | 208° |
| 2026-05-03 22:25 | 41.75174 | -8.12587 | 21029 ft | 371 kts | 212° |
| 2026-05-03 22:26 | 41.72960 | -8.14338 | 21038 ft | 368 kts | 212° |
| 2026-05-03 22:26 | 41.70743 | -8.16038 | 21060 ft | 366 kts | 210° |
| 2026-05-03 22:26 | 41.68427 | -8.17449 | 21065 ft | 365 kts | 203° |
| 2026-05-03 22:26 | 41.66034 | -8.18572 | 21070 ft | 364 kts | 200° |
| 2026-05-03 22:27 | 41.63623 | -8.19591 | 21078 ft | 362 kts | 200° |
| 2026-05-03 22:27 | 41.61226 | -8.20594 | 21079 ft | 360 kts | 200° |
| 2026-05-03 22:27 | 41.58856 | -8.21647 | 21088 ft | 358 kts | 201° |
| 2026-05-03 22:27 | 41.56502 | -8.22730 | 21097 ft | 357 kts | 201° |
| 2026-05-03 22:28 | 41.54191 | -8.23791 | 21120 ft | 355 kts | 201° |
| 2026-05-03 22:28 | 41.51861 | -8.24855 | 21128 ft | 354 kts | 201° |
| 2026-05-03 22:28 | 41.49527 | -8.25919 | 21043 ft | 355 kts | 201° |
| 2026-05-03 22:28 | 41.47188 | -8.26985 | 21043 ft | 362 kts | 201° |
| 2026-05-03 22:29 | 41.44750 | -8.28089 | 21068 ft | 371 kts | 201° |
| 2026-05-03 22:29 | 41.42275 | -8.29202 | 21096 ft | 384 kts | 201° |
| 2026-05-03 22:29 | 41.39695 | -8.30389 | 21123 ft | 401 kts | 201° |
| 2026-05-03 22:29 | 41.36999 | -8.31620 | 21171 ft | 415 kts | 201° |
| 2026-05-03 22:30 | 41.34258 | -8.32866 | 21204 ft | 420 kts | 201° |
| 2026-05-03 22:30 | 41.31446 | -8.34141 | 20865 ft | 437 kts | 201° |
| 2026-05-03 22:30 | 41.28522 | -8.35466 | 20177 ft | 449 kts | 201° |
| 2026-05-03 22:30 | 41.25645 | -8.36766 | 19555 ft | 425 kts | 201° |
| 2026-05-03 22:31 | 41.22941 | -8.37985 | 18937 ft | 396 kts | 201° |
| 2026-05-03 22:31 | 41.20398 | -8.39130 | 18317 ft | 375 kts | 201° |
| 2026-05-03 22:31 | 41.17988 | -8.40220 | 17618 ft | 358 kts | 201° |
| 2026-05-03 22:31 | 41.15676 | -8.41265 | 16941 ft | 345 kts | 201° |
| 2026-05-03 22:32 | 41.13459 | -8.42265 | 16278 ft | 334 kts | 201° |
| 2026-05-03 22:32 | 41.11301 | -8.43236 | 15629 ft | 325 kts | 201° |
| 2026-05-03 22:32 | 41.09184 | -8.44187 | 14999 ft | 318 kts | 201° |
| 2026-05-03 22:32 | 41.07107 | -8.45121 | 14391 ft | 312 kts | 201° |
| 2026-05-03 22:33 | 41.05065 | -8.46040 | 13775 ft | 307 kts | 201° |
| 2026-05-03 22:33 | 41.03068 | -8.46980 | 13086 ft | 302 kts | 207° |
| 2026-05-03 22:33 | 41.01497 | -8.48709 | 12420 ft | 293 kts | 235° |
| 2026-05-03 22:33 | 41.00439 | -8.50991 | 11699 ft | 291 kts | 243° |
| 2026-05-03 22:34 | 40.99560 | -8.53394 | 10987 ft | 290 kts | 250° |
| 2026-05-03 22:34 | 40.99060 | -8.55925 | 10290 ft | 287 kts | 265° |
| 2026-05-03 22:34 | 40.99424 | -8.58480 | 9561 ft | 286 kts | 297° |
| 2026-05-03 22:34 | 41.00545 | -8.60643 | 8822 ft | 283 kts | 298° |
| 2026-05-03 22:35 | 41.01063 | -8.63129 | 8080 ft | 287 kts | 277° |
| 2026-05-03 22:35 | 41.01265 | -8.65741 | 7382 ft | 283 kts | 276° |
| 2026-05-03 22:35 | 41.01423 | -8.68323 | 6677 ft | 279 kts | 275° |
| 2026-05-03 22:35 | 41.01548 | -8.70872 | 5947 ft | 276 kts | 275° |
| 2026-05-03 22:36 | 41.01433 | -8.73382 | 5157 ft | 275 kts | 253° |
| 2026-05-03 22:36 | 41.00354 | -8.75417 | 4559 ft | 274 kts | 218° |
| 2026-05-03 22:36 | 40.98626 | -8.76258 | 4244 ft | 262 kts | 182° |
| 2026-05-03 22:36 | 40.96944 | -8.75671 | 4112 ft | 244 kts | 145° |
| 2026-05-03 22:37 | 40.95943 | -8.74066 | 4079 ft | 220 kts | 113° |
| 2026-05-03 22:37 | 40.95337 | -8.72255 | 4051 ft | 210 kts | 103° |
| 2026-05-03 22:37 | 40.95431 | -8.70462 | 4023 ft | 190 kts | 56° |
| 2026-05-03 22:37 | 40.96309 | -8.69312 | 4025 ft | 172 kts | 33° |
| 2026-05-03 22:38 | 40.97227 | -8.68375 | 3996 ft | 161 kts | 33° |
| 2026-05-03 22:38 | 40.98088 | -8.67512 | 3977 ft | 150 kts | 32° |
| 2026-05-03 22:38 | 40.98894 | -8.66725 | 3920 ft | 138 kts | 31° |
| 2026-05-03 22:38 | 40.99804 | -8.66464 | 2127 ft | 167 kts | 327° |
| 2026-05-03 22:39 | 40.99605 | -8.68185 | 369 ft | 255 kts | 226° |
| 2026-05-03 22:39 | 40.98149 | -8.69116 | 1650 ft | 235 kts | 178° |
| 2026-05-03 22:39 | 40.96707 | -8.68088 | 2522 ft | 258 kts | 117° |
| 2026-05-03 22:39 | 40.96751 | -8.65848 | 3123 ft | 243 kts | 53° |
| 2026-05-03 22:40 | 40.98054 | -8.64821 | 3507 ft | 213 kts | 6° |
| 2026-05-03 22:40 | 40.99487 | -8.64572 | 3803 ft | 210 kts | 5° |
| 2026-05-03 22:40 | 41.01012 | -8.64380 | 3740 ft | 230 kts | 4° |
| 2026-05-03 22:40 | 41.02649 | -8.64195 | 3855 ft | 238 kts | 3° |
| 2026-05-03 22:41 | 41.04182 | -8.63995 | 4275 ft | 207 kts | 4° |
| 2026-05-03 22:41 | 41.05583 | -8.63870 | 4252 ft | 199 kts | 359° |
| 2026-05-03 22:41 | 41.06960 | -8.63877 | 4104 ft | 198 kts | 357° |
| 2026-05-03 22:41 | 41.08350 | -8.63939 | 3795 ft | 201 kts | 356° |
| 2026-05-03 22:42 | 41.09729 | -8.64082 | 3476 ft | 191 kts | 351° |
| 2026-05-03 22:42 | 41.10992 | -8.64378 | 3090 ft | 183 kts | 346° |
| 2026-05-03 22:42 | 41.12182 | -8.64764 | 2730 ft | 167 kts | 346° |
| 2026-05-03 22:42 | 41.13289 | -8.65099 | 2199 ft | 163 kts | 347° |
| 2026-05-03 22:43 | 41.14369 | -8.65395 | 1871 ft | 150 kts | 348° |
| 2026-05-03 22:43 | 41.15355 | -8.65630 | 1594 ft | 136 kts | 347° |
| 2026-05-03 22:43 | 41.16228 | -8.65886 | 1325 ft | 126 kts | 347° |
| 2026-05-03 22:43 | 41.17118 | -8.66113 | 1382 ft | 135 kts | 348° |
| 2026-05-03 22:44 | 41.18059 | -8.66350 | 1411 ft | 130 kts | 348° |
| 2026-05-03 22:44 | 41.18906 | -8.66570 | 1086 ft | 126 kts | 349° |
| 2026-05-03 22:44 | 41.19777 | -8.66797 | 1016 ft | 128 kts | 347° |
| 2026-05-03 22:44 | 41.20667 | -8.67037 | 850 ft | 133 kts | 348° |
| 2026-05-03 22:45 | 41.21595 | -8.67282 | 694 ft | 139 kts | 348° |
| 2026-05-03 22:45 | 41.22519 | -8.67527 | 467 ft | 129 kts | 348° |
| 2026-05-03 22:45 | 41.23393 | -8.67751 | 270 ft | 129 kts | 348° |
| 2026-05-03 22:45 | 41.24155 | -8.67952 | 234 ft | 93 kts | 348° |
| 2026-05-03 22:46 | 41.24698 | -8.68094 | 236 ft | 65 kts | 349° |
| 2026-05-03 22:46 | 41.25052 | -8.68171 | 232 ft | 48 kts | 2° |
| 2026-05-03 22:46 | 41.25274 | -8.68098 | 236 ft | 23 kts | 28° |
| 2026-05-03 22:46 | 41.25297 | -8.68046 | 233 ft | 1 kts | 110° |
| 2026-05-03 22:47 | 41.25297 | -8.68045 | 233 ft | 0 kts | 117° |
| 2026-05-03 22:47 | 41.25295 | -8.68041 | 233 ft | 3 kts | 118° |
| 2026-05-03 22:47 | 41.25259 | -8.68011 | 233 ft | 7 kts | 165° |
| 2026-05-03 22:47 | 41.25243 | -8.68007 | 233 ft | 2 kts | 167° |
| 2026-05-03 22:48 | 41.25225 | -8.68002 | 233 ft | 3 kts | 167° |
| 2026-05-03 22:48 | 41.25199 | -8.67994 | 233 ft | 5 kts | 167° |
| 2026-05-03 22:48 | 41.25164 | -8.67985 | 233 ft | 6 kts | 169° |
| 2026-05-03 22:48 | 41.25118 | -8.67973 | 233 ft | 7 kts | 169° |
| 2026-05-03 22:49 | 41.25064 | -8.67960 | 233 ft | 8 kts | 169° |
| 2026-05-03 22:49 | 41.25004 | -8.67945 | 233 ft | 9 kts | 169° |
| 2026-05-03 22:49 | 41.24937 | -8.67927 | 233 ft | 10 kts | 169° |
| 2026-05-03 22:49 | 41.24880 | -8.67907 | 235 ft | 1 kts | 157° |
| 2026-05-03 22:50 | 41.24867 | -8.67900 | 233 ft | 3 kts | 157° |
| 2026-05-03 22:50 | 41.24847 | -8.67887 | 235 ft | 5 kts | 151° |
| 2026-05-03 22:50 | 41.24809 | -8.67859 | 235 ft | 8 kts | 150° |
| 2026-05-03 22:50 | 41.24746 | -8.67823 | 233 ft | 8 kts | 166° |
| 2026-05-03 22:51 | 41.24677 | -8.67803 | 233 ft | 12 kts | 168° |
| 2026-05-03 22:51 | 41.24594 | -8.67780 | 233 ft | 13 kts | 169° |
| 2026-05-03 22:51 | 41.24561 | -8.67772 | 233 ft | 5 kts | 171° |
| 2026-05-03 22:51 | 41.24523 | -8.67764 | 233 ft | 6 kts | 170° |
| 2026-05-03 22:52 | 41.24478 | -8.67753 | 233 ft | 7 kts | 169° |
| 2026-05-03 22:52 | 41.24425 | -8.67738 | 233 ft | 8 kts | 169° |
| 2026-05-03 22:52 | 41.24358 | -8.67721 | 233 ft | 12 kts | 169° |
| 2026-05-03 22:52 | 41.24281 | -8.67668 | 234 ft | 14 kts | 128° |
| 2026-05-03 22:53 | 41.24217 | -8.67550 | 233 ft | 17 kts | 129° |
| 2026-05-03 22:53 | 41.24119 | -8.67451 | 233 ft | 19 kts | 156° |
| 2026-05-03 22:53 | 41.24046 | -8.67409 | 235 ft | 5 kts | 102° |
| 2026-05-03 22:53 | 41.24051 | -8.67363 | 236 ft | 6 kts | 78° |
| 2026-05-03 22:54 | 41.24057 | -8.67326 | 233 ft | 3 kts | 79° |
| 2026-05-03 22:54 | 41.24058 | -8.67319 | 233 ft | 0 kts | 78° |